Sipesville, PA (15561)

8:31 AM EDT on July 30, 2016 (GMT -0400)
APRSWXNET | | Change Station

Elev 1970 ft 40.12 °N, 79.10 °W | Updated 22 minutes ago

Overcast
Overcast
65 °F
Feels Like 65 °F
N
0
Wind Variable Wind from ESE
Gusts 0.0 mph

Today
High -- | Low -- °F
--% Chance of Precip.
Yesterday
High -- | Low -- °F
Precip. -- in
Pressure 29.98 in
Visibility 7.0 miles
Clouds Overcast 12000 ft
Dew Point 65 °F
Humidity 100%
Rainfall in
Snow Depth Not available.
6:13 AM 8:31 PM
Waning Crescent, 13% visible
METAR KLBE 301145Z 00000KT 7SM OVC120 20/20 A2998
Pressure 29.98 in
Visibility 7.0 miles
Clouds Overcast 12000 ft
Dew Point 65 °F
Humidity 100%
Rainfall in
Snow Depth Not available.
6:13 AM 8:31 PM
Waning Crescent, 13% visible
METAR KLBE 301145Z 00000KT 7SM OVC120 20/20 A2998

10-Day Weather Forecast

Almanac

Astronomy

Jul. 30, 2016 Rise Set
Actual Time
Civil Twilight
Nautical Twilight
Astronomical Twilight
Moon
Length of Visible Light
Length of Day
Tomorrow will be .
, % of the Moon is Illuminated

Today's Extremes

State Highs State Lows

Community

WunderPhotos

Upload Photos

1,928,544 photos uploaded!

WunderBlog® & News

Nearby

Air Quality

  Air Quality AQ Index Pollutant
Not available.

Snow Depth

Station Depth Elevation

Earthquake Activity

City Distance Mag. Time & Date
Minimum magnitude displayed is 2.5.

Coastal Water Temperatures

Place Temperature

Stations

Nearby Weather Stations

Station Location Temp. Windchill Dew Point Humidity Wind Precip. Elev Updated Type
                   

Watches & Warnings

There are currently no watches in effect.